アタテュルク国際空港(イスタンブル)の過去48時間の天気

アタテュルク国際空港(イスタンブル) (Istanbul / Ataturk)

現在時刻: 7/16 20:06 +03 (7/16 17:06 UTC) 以下の時間は現地時間です。

過去48時間のMETAR気象情報
時間 風向 風速(m/s) 視程 気温(℃) 湿度(%) 気圧(hPa) 天気現象
16 19:50 北北東 5 10km以上 23 53 1011
16 19:20 6 10km以上 24 50 1011
16 18:50 北北東 6 10km以上 24 50 1011
16 18:20 7 10km以上 25 47 1011
16 17:50 7 10km以上 25 47 1011
16 17:20 6 10km以上 25 47 1011
16 16:50 6 10km以上 26 45 1011
16 16:20 北北東 6 10km以上 26 45 1011
16 15:50 7 10km以上 26 45 1011
16 15:20 5 10km以上 26 45 1011
16 14:50 5 10km以上 26 45 1011
16 14:20 6 10km以上 26 45 1012
16 13:50 6 10km以上 26 42 1012
16 13:20 5 10km以上 26 45 1012
16 12:50 5 10km以上 25 44 1012
16 12:20 5 10km以上 25 47 1012
16 11:50 北北東 3 10km以上 25 44 1013
16 11:20 北東 4 10km以上 26 45 1013
16 10:50 北東 3 10km以上 25 50 1013
16 10:20 北北東 4 10km以上 24 54 1013
16 09:50 北東 3 10km以上 24 54 1013
16 09:20 北東 4 10km以上 24 54 1013
16 08:50 北北東 4 10km以上 23 57 1013
16 08:20 北東 5 10km以上 23 57 1013
16 07:50 北北東 4 10km以上 22 65 1013
16 07:20 3 10km以上 21 69 1013
16 06:50 3 10km以上 20 73 1013
16 06:20 3 10km以上 20 73 1013
16 05:50 2 10km以上 18 83 1013
16 05:20 4 10km以上 18 83 1013
16 04:50 3 10km以上 17 88 1013
16 04:20 北北西 3 10km以上 17 88 1013
16 03:50 3 10km以上 18 83 1013
16 03:20 北北西 2 10km以上 18 83 1014
16 02:50 北北西 3 10km以上 19 78 1013
16 02:20 北北西 4 10km以上 19 78 1014
16 01:50 3 10km以上 18 83 1014
16 01:20 北北西 3 10km以上 18 77 1014
16 00:50 3 10km以上 19 73 1014
16 00:20 3 10km以上 20 73 1014
15 23:50 北北東 3 10km以上 21 69 1014
15 23:20 北東 3 10km以上 21 69 1015
15 22:50 北東 4 10km以上 21 69 1015
15 22:20 北北東 4 10km以上 21 69 1015
15 21:50 北北東 5 10km以上 22 65 1015
15 21:20 北東 5 10km以上 22 65 1015
15 20:50 北東 4 10km以上 22 65 1015
15 20:20 北北東 5 10km以上 23 61 1015
15 19:50 北東 4 10km以上 23 57 1015
15 19:20 5 10km以上 23 53 1015
15 18:50 北北東 5 10km以上 23 53 1015
15 18:20 6 10km以上 23 50 1015
15 17:50 6 10km以上 23 50 1015
15 17:20 6 10km以上 24 50 1015
15 16:50 北北東 6 10km以上 25 44 1015
15 16:20 北北東 5 10km以上 24 50 1015
15 15:50 7 10km以上 24 50 1015
15 15:20 北北東 5 10km以上 23 53 1015
15 14:50 北北東 6 10km以上 23 53 1015
15 14:20 7 10km以上 23 53 1015
15 13:50 北北東 5 10km以上 23 53 1015
15 13:20 北東 5 10km以上 22 57 1015
15 12:50 北北東 6 10km以上 22 57 1015
15 12:20 北北東 7 10km以上 22 57 1015
15 11:50 北北東 6 10km以上 22 57 1015
15 11:20 北北東 5 10km以上 22 57 1015
15 10:50 北北東 7 10km以上 22 57 1015
15 10:20 北北東 7 10km以上 22 57 1015
15 09:50 北北東 6 10km以上 22 57 1015
15 09:20 7 10km以上 22 57 1015
15 08:50 北北東 7 10km以上 22 57 1015
15 08:20 北北東 5 10km以上 22 60 1015
15 07:50 北北東 5 10km以上 21 64 1015
15 07:20 4 10km以上 21 64 1015
15 06:50 4 10km以上 20 64 1014
15 06:20 4 10km以上 20 64 1014
15 05:50 4 10km以上 20 60 1014
15 05:20 3 10km以上 20 60 1014
15 04:50 4 10km以上 20 60 1014
15 04:20 3 10km以上 20 60 1014
15 03:50 3 10km以上 20 56 1014
15 03:20 北北東 3 10km以上 20 56 1014
15 02:50 北北東 3 10km以上 20 56 1014
15 02:20 北東 3 10km以上 20 56 1014
15 01:50 北東 3 10km以上 21 53 1015
15 01:20 北東 3 10km以上 21 53 1015
15 00:50 北東 4 10km以上 21 56 1015
15 00:20 北東 6 10km以上 21 56 1015
14 23:50 北東 5 10km以上 21 56 1015
14 23:20 北東 6 10km以上 21 56 1015
14 22:50 北東 7 10km以上 21 56 1015
14 22:20 北東 7 10km以上 22 57 1015
14 21:50 北東 8 10km以上 22 53 1015
14 21:20 北東 7 10km以上 22 53 1015
14 20:50 北東 6 10km以上 22 53 1015
14 20:20 北東 7 10km以上 22 57 1014
LTBA 161650Z 02010KT CAVOK 23/13 Q1011 NOSIG
LTBA 161620Z 01012KT CAVOK 24/13 Q1011 NOSIG RMK RWY17 02012KT 350V060 RWY05 02013KT RWY23 03011KT
LTBA 161550Z 02012KT CAVOK 24/13 Q1011 NOSIG RMK RWY17 01012KT 340V040 RWY05 03013KT RWY23 03013KT
LTBA 161520Z 01013KT 350V050 CAVOK 25/13 Q1011 NOSIG RMK RWY17 02013KT 320V060 RWY05 04012KT 350V060 RWY23 03012KT
LTBA 161450Z 01014KT CAVOK 25/13 Q1011 NOSIG RMK RWY17 01013KT 330V050 RWY05 02013KT 360V060 RWY23 03013KT
LTBA 161420Z 01012KT 350V050 CAVOK 25/13 Q1011 NOSIG RMK RWY17 03011KT RWY05 03014KT RWY23 04011KT 360V070
LTBA 161350Z 01012KT 340V050 CAVOK 26/13 Q1011 NOSIG RMK RWY17 04012KT 010V070 RWY05 04012G22KT 360V070 RWY23 04013KT 010V080
LTBA 161320Z 02012KT 350V050 CAVOK 26/13 Q1011 NOSIG RMK RWY17 02012KT 350V080 RWY05 02013G23KT RWY23 04013KT 010V070
LTBA 161250Z 36013KT CAVOK 26/13 Q1011 NOSIG RMK RWY17 03010KT 340V060 RWY05 03011KT RWY23 04013KT 350V070
LTBA 161220Z 01009KT 320V060 9999 FEW040 26/13 Q1011 NOSIG RMK RWY17 01011KT RWY05 03009KT 340V080 RWY23 04011KT 340V080
LTBA 161150Z 35009KT 320V040 9999 FEW040 26/13 Q1011 NOSIG RMK RWY17 36011KT 320V030 RWY05 02008KT 350V070 RWY23 03012KT 010V070
LTBA 161120Z 36012KT 320V040 9999 FEW040 26/13 Q1012 NOSIG RMK RWY17 04010KT 350V100 RWY05 04009KT 360V090 RWY23 04011KT 360V090
LTBA 161050Z 01011KT 340V070 9999 SCT040 26/12 Q1012 NOSIG RMK RWY17 04007KT 320V110 RWY05 01011KT RWY23 03010KT 340V090
LTBA 161020Z 01009KT 330V060 9999 SCT040 26/13 Q1012 NOSIG RMK RWY17 03007KT 330V130 RWY05 04009KT 350V070 RWY23 VRB08KT
LTBA 160950Z 01009KT 320V050 9999 SCT040 25/12 Q1012 NOSIG RMK RWY17 01008KT 320V050 RWY05 01009KT 320V060 RWY23 02011KT 340V050
LTBA 160920Z 35009KT 320V030 9999 FEW040 25/13 Q1012 NOSIG RMK RWY17 01007KT 320V130 RWY05 04007KT 320V090 RWY23 05010KT 010V090
LTBA 160850Z 03006KT 310V080 9999 FEW048 25/12 Q1013 NOSIG RMK RWY17 05008KT 010V080 RWY05 07008KT 040V100 RWY23 04007KT 330V080
LTBA 160820Z 04008KT 010V110 9999 FEW046 26/13 Q1013 NOSIG RMK RWY17 02009KT 340V090 RWY05 06009KT 030V090 RWY23 02009KT
LTBA 160750Z 04006KT 350V090 9999 FEW040 25/14 Q1013 NOSIG RMK RWY17 02008KT 340V060 RWY05 05008KT 360V070 RWY23 02009KT 350V050
LTBA 160720Z 02007KT 340V070 9999 FEW040 24/14 Q1013 NOSIG RMK RWY17 03008KT 340V080 RWY05 05007KT 360V110 RWY23 06008KT 360V100
LTBA 160650Z 04006KT 010V080 9999 FEW040 24/14 Q1013 NOSIG RMK RWY17 01007KT 330V040 RWY05 04007KT RWY23 04007KT 010V080
LTBA 160620Z 05007KT 010V100 9999 FEW036 24/14 Q1013 NOSIG RMK RWY17 01009KT RWY05 06008KT 020V120 RWY23 05008KT 010V070
LTBA 160550Z 03008KT 340V070 9999 FEW035 23/14 Q1013 NOSIG RMK RWY17 03009KT 360V070 RWY05 03010KT RWY23 05008KT 360V100
LTBA 160520Z 05009KT 020V080 CAVOK 23/14 Q1013 NOSIG RMK RWY17 02009KT RWY05 04010KT RWY23 04009KT 010V080
LTBA 160450Z 02008KT 360V070 CAVOK 22/15 Q1013 NOSIG RMK RWY17 01008KT RWY05 04008KT 010V070 RWY23 04009KT
LTBA 160420Z 01006KT CAVOK 21/15 Q1013 NOSIG RMK RWY17 02007KT RWY05 03008KT RWY23 03008KT 320V050
LTBA 160350Z 35005KT CAVOK 20/15 Q1013 NOSIG RMK RWY17 36006KT RWY05 02006KT RWY23 03008G20KT 340V080
LTBA 160320Z 01006KT 340V080 CAVOK 20/15 Q1013 NOSIG RMK RWY17 36005KT RWY05 03007KT RWY23 VRB07G17KT
LTBA 160250Z 01004KT CAVOK 18/15 Q1013 NOSIG RMK RWY17 01005KT RWY05 03005KT RWY23 03005KT
LTBA 160220Z 35007KT 9999 FEW030 18/15 Q1013 NOSIG RMK RWY17 35005KT RWY05 01004KT RWY23 36005KT
LTBA 160150Z 35005KT 9999 FEW030 17/15 Q1013 NOSIG RMK RWY17 35004KT RWY05 02003KT RWY23 02004KT
LTBA 160120Z 34006KT CAVOK 17/15 Q1013 NOSIG RMK RWY17 35003KT RWY05 36005KT RWY23 35004KT 320V100
LTBA 160050Z 35005KT 9999 FEW032 18/15 Q1013 NOSIG RMK RWY17 VRB01KT RWY05 02004KT RWY23 01004KT
LTBA 160020Z 34004KT 9999 FEW032 18/15 Q1014 NOSIG RMK RWY17 34005KT RWY05 36004KT RWY23 34004KT
LTBA 152350Z 34006KT 9999 FEW032 19/15 Q1013 NOSIG RMK RWY17 35004KT RWY05 36004KT RWY23 35003KT
LTBA 152320Z 34007KT CAVOK 19/15 Q1014 NOSIG RMK RWY17 34004KT RWY05 36005KT RWY23 36004KT
LTBA 152250Z 36005KT CAVOK 18/15 Q1014 NOSIG RMK RWY17 35005KT RWY05 02004KT 350V050 RWY23 02003KT 350V050
LTBA 152220Z 34005KT CAVOK 18/14 Q1014 NOSIG RMK RWY17 33006KT RWY05 36005KT RWY23 34004KT
LTBA 152150Z 35005KT CAVOK 19/14 Q1014 NOSIG RMK RWY17 35006KT RWY05 02003KT 340V050 RWY23 02003KT 360V070
LTBA 152120Z 36005KT CAVOK 20/15 Q1014 NOSIG RMK RWY17 36005KT RWY05 02004KT RWY23 01003KT
LTBA 152050Z 02005KT CAVOK 21/15 Q1014 NOSIG RMK RWY17 01006KT RWY05 03005KT RWY23 03005KT
LTBA 152020Z 04006KT CAVOK 21/15 Q1015 NOSIG RMK RWY17 03005KT RWY05 05007KT RWY23 04005KT
LTBA 151950Z 04007KT 360V060 CAVOK 21/15 Q1015 NOSIG RMK RWY17 04006KT 010V080 RWY05 05008KT RWY23 04007KT
LTBA 151920Z 03007KT 360V060 CAVOK 21/15 Q1015 NOSIG RMK RWY17 02007KT RWY05 04008KT RWY23 03007KT
LTBA 151850Z 02009KT 9999 FEW040 22/15 Q1015 NOSIG RMK RWY17 02007KT RWY05 03008KT RWY23 04007KT 020V080
LTBA 151820Z 05009KT 9999 FEW040 22/15 Q1015 NOSIG RMK RWY17 03009KT RWY05 05010KT RWY23 05010KT
LTBA 151750Z 05008KT 010V080 9999 SCT040 22/15 Q1015 NOSIG RMK RWY17 03008KT 360V070 RWY05 06010KT RWY23 06009KT
LTBA 151720Z 02010KT 350V070 9999 SCT040 23/15 Q1015 NOSIG RMK RWY17 03010KT 360V060 RWY05 06010KT RWY23 05012KT
LTBA 151650Z 05008KT 010V100 9999 SCT040 23/14 Q1015 NOSIG RMK RWY17 02010KT 350V050 RWY05 06010KT RWY23 05010KT
LTBA 151620Z 01010KT 350V060 9999 BKN040 23/13 Q1015 NOSIG RMK RWY17 03009KT 360V060 RWY05 04010KT RWY23 05011KT
LTBA 151550Z 02009KT 9999 BKN040 23/13 Q1015 NOSIG RMK RWY17 03010KT 360V060 RWY05 06010KT RWY23 05010KT
LTBA 151520Z 36011KT 9999 BKN040 23/12 Q1015 NOSIG RMK RWY17 04010KT RWY05 05011KT RWY23 06012KT
LTBA 151450Z 01012KT 9999 BKN040 23/12 Q1015 NOSIG RMK RWY17 02010KT 350V050 RWY05 04011KT RWY23 05010KT 010V080
LTBA 151420Z 01012KT 9999 BKN040 24/13 Q1015 NOSIG RMK RWY17 03011KT 350V060 RWY05 05011KT 020V080 RWY23 07012KT
LTBA 151350Z 02012KT 9999 SCT040 25/12 Q1015 NOSIG RMK RWY17 02012KT 350V050 RWY05 07012KT 040V100 RWY23 07013KT 040V100
LTBA 151320Z 02010KT 9999 SCT040 24/13 Q1015 NOSIG RMK RWY17 01012KT RWY05 03011KT 010V080 RWY23 07011KT 030V090
LTBA 151250Z 01013KT 9999 BKN040 24/13 Q1015 NOSIG RMK RWY17 02012KT RWY05 04012KT 360V070 RWY23 04011KT 360V080
LTBA 151220Z 02010KT 360V060 9999 BKN035 23/13 Q1015 NOSIG RMK RWY17 03012KT 350V050 RWY05 03011KT RWY23 04011KT 010V070
LTBA 151150Z 02011KT 350V060 9999 BKN035 23/13 Q1015 NOSIG RMK RWY17 36012KT RWY05 04011KT 010V070 RWY23 05011KT 020V080
LTBA 151120Z 01013KT 9999 BKN035 23/13 Q1015 NOSIG RMK RWY17 03011KT 360V070 RWY05 05010KT 010V080 RWY23 06012KT
LTBA 151050Z 03009KT 9999 BKN035 23/13 Q1015 NOSIG RMK RWY17 02012KT 350V050 RWY05 05012KT RWY23 05011KT 020V090
LTBA 151020Z 04010KT 010V070 9999 BKN035 22/13 Q1015 NOSIG RMK RWY17 02012KT 350V050 RWY05 05012KT RWY23 04013KT 010V080
LTBA 150950Z 02012KT 9999 BKN035 22/13 Q1015 NOSIG RMK RWY17 02013KT RWY05 06012KT RWY23 06014KT
LTBA 150920Z 02013KT 9999 BKN035 22/13 Q1015 NOSIG RMK RWY17 03012KT RWY05 06014KT RWY23 06013KT
LTBA 150850Z 03011KT 9999 BKN035 22/13 Q1015 NOSIG RMK RWY17 02012KT 350V060 RWY05 06014KT RWY23 05012KT
LTBA 150820Z 03010KT 9999 BKN035 22/13 Q1015 NOSIG RMK RWY17 01012KT 340V050 RWY05 04012KT RWY23 04011KT 020V080
LTBA 150750Z 03014KT 9999 BKN035 22/13 Q1015 NOSIG RMK RWY17 03011KT 360V070 RWY05 05013KT 010V080 RWY23 06013KT
LTBA 150720Z 02013KT 9999 BKN035 22/13 Q1015 NOSIG RMK RWY17 04014KT 010V070 RWY05 04012KT RWY23 05011KT 020V080
LTBA 150650Z 03012KT 9999 BKN035 22/13 Q1015 NOSIG RMK RWY17 04012KT 010V070 RWY05 05014KT RWY23 04014KT 360V060
LTBA 150620Z 01014KT 9999 BKN035 22/13 Q1015 NOSIG RMK RWY17 03010KT 350V060 RWY05 04013KT RWY23 04012KT
LTBA 150550Z 02014KT 9999 BKN035 22/13 Q1015 NOSIG RMK RWY17 03011KT 360V060 RWY05 04013KT RWY23 04015KT
LTBA 150520Z 03009KT 360V060 9999 SCT035 22/14 Q1015 NOSIG RMK RWY17 03012KT 360V060 RWY05 04012KT RWY23 03011KT 310V060
LTBA 150450Z 02010KT 9999 FEW035 21/14 Q1015 NOSIG RMK RWY17 02009KT RWY05 03010KT RWY23 03008KT
LTBA 150420Z 01008KT 9999 FEW035 21/14 Q1015 NOSIG RMK RWY17 02010KT RWY05 03009KT RWY23 03008KT
LTBA 150350Z 36007KT 9999 FEW035 20/13 Q1014 NOSIG RMK RWY17 01008KT RWY05 03008KT RWY23 03009KT
LTBA 150320Z 01007KT CAVOK 20/13 Q1014 NOSIG RMK RWY17 02008KT RWY05 03007KT RWY23 03008KT
LTBA 150250Z 01007KT CAVOK 20/12 Q1014 NOSIG RMK RWY17 01008KT RWY05 02007KT RWY23 03008KT
LTBA 150220Z 01006KT CAVOK 20/12 Q1014 NOSIG RMK RWY17 02008KT RWY05 03007KT RWY23 03007KT
LTBA 150150Z 01007KT CAVOK 20/12 Q1014 NOSIG RMK RWY17 01007KT RWY05 02007KT RWY23 03006KT 350V120
LTBA 150120Z 01006KT CAVOK 20/12 Q1014 NOSIG RMK RWY17 02006KT RWY05 04006KT RWY23 04006KT
LTBA 150050Z 01006KT CAVOK 20/11 Q1014 NOSIG RMK RWY17 02007KT RWY05 03006KT 320V060 RWY23 04006KT 340V080
LTBA 150020Z 02006KT CAVOK 20/11 Q1014 NOSIG RMK RWY17 02006KT RWY05 04005KT RWY23 03007KT
LTBA 142350Z 03005KT CAVOK 20/11 Q1014 NOSIG RMK RWY17 03005KT RWY05 05008KT RWY23 04007KT
LTBA 142320Z 04006KT CAVOK 20/11 Q1014 NOSIG RMK RWY17 05006KT RWY05 05008KT RWY23 04007KT 020V090
LTBA 142250Z 04005KT 360V080 CAVOK 21/11 Q1015 NOSIG RMK RWY17 05004KT 010V090 RWY05 06007KT RWY23 05006KT
LTBA 142220Z 04006KT CAVOK 21/11 Q1015 NOSIG RMK RWY17 03007KT 360V070 RWY05 06007KT RWY23 05008KT
LTBA 142150Z 05008KT CAVOK 21/12 Q1015 NOSIG RMK RWY17 03009KT 360V060 RWY05 06010KT RWY23 06009KT
LTBA 142120Z 04011KT CAVOK 21/12 Q1015 NOSIG RMK RWY17 02008KT RWY05 06010KT RWY23 06011KT
LTBA 142050Z 04009KT 010V070 CAVOK 21/12 Q1015 NOSIG RMK RWY17 04008KT RWY05 06010KT RWY23 05011G21KT
LTBA 142020Z 04011KT CAVOK 21/12 Q1015 NOSIG RMK RWY17 04009KT 020V080 RWY05 06011KT RWY23 06011KT
LTBA 141950Z 04013KT CAVOK 21/12 Q1015 NOSIG RMK RWY17 04010KT 010V070 RWY05 06014KT RWY23 06012KT
LTBA 141920Z 04014KT CAVOK 22/13 Q1015 NOSIG RMK RWY17 04010KT RWY05 06015KT RWY23 05014KT
LTBA 141850Z 05016KT CAVOK 22/12 Q1015 NOSIG RMK RWY17 04011KT 010V080 RWY05 06014KT RWY23 06014KT
LTBA 141820Z 04014KT 010V070 CAVOK 22/12 Q1015 NOSIG RMK RWY17 03010KT RWY05 06017KT RWY23 05016KT
LTBA 141750Z 04012KT 010V070 CAVOK 22/12 Q1015 NOSIG RMK RWY17 03011KT 360V070 RWY05 06017KT RWY23 06018KT
LTBA 141720Z 04014KT CAVOK 22/13 Q1014 NOSIG RMK RWY17 04016KT RWY05 06016KT RWY23 06018KT